Tiempo atmosférico en la estación meteorológica de Bujaraloz, Zaragoza (357 m.)



Fecha
DESCASC
Temp. máxima en grados centígrados (hora)
DESCASC
Temp. mínima en grados centígrados (hora)
DESCASC
Temp. media en grados centígrados
DESCASC
Racha de viento máxima en m/sg (hora)
DESCASC
Velocidad máxima media en intervalos de 10 minutos(hora)
DESCASC
Precipitaciones diarias en mm
DESCASC
Precipitaciones de 00:00 a 06:00 en mm
DESCASC
Precipitaciones de 06:00 a 12:00 en mm
DESCASC
Precipitaciones de 12:00 a 18:00 en mm
DESCASC
Precipitaciones de 18:00 a 24:00 en mm
DESCASC
18-02-2018 14.3 (16:30) 1 (08:00) 7.7 10.28 (17:30) 7.5 (17:30) 0 0 0 0 0
17-02-2018 14.7 (13:20) 4.9 (23:59) 9.8 17.78 (14:20) 12.78 (14:50) 0 0 0 0 0
16-02-2018 15.4 (16:30) 8.5 (07:30) 11.9 4.44 (14:20) 3.06 (17:50) 0.2 0 0 0.2 0
15-02-2018 18.8 (16:00) 5 (00:00) 11.9 9.72 (12:50) 6.67 (02:00) 0 0 0 0 0
14-02-2018 13.2 (16:20) 3.3 (00:00) 8.2 9.72 (13:30) 6.39 (13:20) 0 0 0 0 0
13-02-2018 7.4 (17:10) -2.5 (-00:0) 2.5 10 (17:50) 7.5 (00:10) 0 0 0 0 0
12-02-2018 11.1 (14:40) 0.4 (00:00) 5.8 17.22 (10:40) 12.5 (10:50) 0 0 0 0 0
11-02-2018 16.1 (15:20) 1.5 (00:00) 8.8 16.39 (14:00) 11.94 (13:50) 0 0 0 0 0
10-02-2018 10.8 (16:00) 0.6 (00:00) 5.7 16.67 (02:20) 11.94 (02:30) 0 0 0 0 0
09-02-2018 8 (15:30) -3.3 (-00:0) 2.4 17.5 (22:10) 12.22 (22:00) 0 0 0 0 0
08-02-2018 8.5 (14:30) -2 (-00:0) 3.3 12.5 (10:30) 9.17 (11:00) 0 0 0 0 0
07-02-2018 7.5 (15:00) -1 (-00:0) 3.3 15 (16:40) 10 (16:40) 0 0 0 0 0
06-02-2018 4.8 (00:30) 0.3 (00:00) 2.6 11.11 (21:40) 7.5 (21:40) 2 1 0.8 0.2 0
05-02-2018 5.5 (14:30) 3.5 (00:00) 4.5 5.83 (04:20) 3.33 (04:20) 3.6 0.2 2.8 0 0.6
04-02-2018 5 (13:50) 2.3 (00:00) 3.6 8.89 (01:40) 6.39 (01:40) 7.8 0 0.4 6.2 1.2
03-02-2018 10.1 (14:50) 0.2 (00:00) 5.2 17.22 (12:20) 11.94 (13:10) 0 0 0 0 0
02-02-2018 10.6 (14:30) -1.5 (-00:0) 4.6 15.28 (17:40) 10 (17:10) 0 0 0 0 0
01-02-2018 8.7 (15:00) -2.2 (-00:0) 3.2 16.67 (15:20) 11.11 (15:10) 0 0 0 0 0
31-01-2018 9.7 (14:40) -2.3 (-00:0) 3.7 5.28 (03:00) 3.33 (03:00) 0 0 0 0 0
30-01-2018 12.1 (16:00) 0.6 (00:00) 6.4 3.61 (23:59) 2.5 (17:20) 0 0 0 0 0
29-01-2018 12.4 (15:20) 1.5 (00:00) 6.9 8.33 (15:10) 6.11 (12:30) 0 0 0 0 0
28-01-2018 11.5 (15:30) 2.9 (00:00) 7.2 5.83 (16:30) 3.61 (08:40) 0 0 0 0 0
27-01-2018 11.5 (15:10) 0.5 (00:00) 6 8.89 (11:00) 6.39 (11:20) 0 0 0 0 0
26-01-2018 8.6 (14:50) 2.8 (00:00) 5.7 13.89 (14:40) 9.17 (14:50) 1.6 1 0.6 0 0
25-01-2018 11.9 (14:30) 6 (00:00) 8.9 10.28 (23:50) 6.67 (23:50) 3 0 0 0 3
24-01-2018 14.4 (16:10) 4.3 (00:00) 9.3 5 (14:30) 3.61 (00:30) 0 0 0 0 0
23-01-2018 16 (16:50) 7.1 (00:00) 11.5 10.56 (01:40) 7.78 (01:30) 0 0 0 0 0
22-01-2018 15.9 (15:30) 6.7 (00:00) 11.3 19.44 (17:10) 13.06 (17:10) 0 0 0 0 0

Gráficas

Temp. máximas Temp. mínimas Temp. medias Precipitaciones Rachas de viento máximas Velocidades máximas media en intervalos de 10 minutos

Datos horarios

Fecha y hora oficial Temperatura (ºC) Velocidad del viento (km/h) Dirección del viento Racha (km/h) Dirección de racha Precipitación (mm) Presión (hPa) Tendencia (hPa) Humedad (%)
2018-02-20 23:00:00 6.6 23 Oeste 48 Oeste 0 968.8 -0.2 74
2018-02-20 22:00:00 7.1 27 Oeste 44 Oeste 0 969.2 0.2 74
2018-02-20 21:00:00 8.3 29 Oeste 49 Oeste 0 969.6 0.8 68
2018-02-20 20:00:00 8.9 39 Oeste 62 Oeste 0 969 0.5 66
2018-02-20 19:00:00 10.1 41 Oeste 67 Oeste 0 969 0.2 61
2018-02-20 18:00:00 12 47 Oeste 74 Oeste 0 968.8 -0.3 56
2018-02-20 17:00:00 13.9 46 Oeste 69 Oeste 0 968.5 -1.3 50
2018-02-20 16:00:00 15.5 32 Oeste 60 Oeste 0 968.8 -1.1 46
2018-02-20 15:00:00 15.2 39 Oeste 57 Oeste 0 969.1 -1.2 48
2018-02-20 14:00:00 14.4 37 Oeste 58 Oeste 0 969.8 -0.9 51
2018-02-20 13:00:00 14.8 35 Oeste 51 Oeste 0 969.9 -0.7 50
2018-02-20 12:00:00 13.8 33 Oeste 53 Oeste 0 970.3 -0.2 54
2018-02-20 11:00:00 12.2 34 Oeste 56 Oeste 0 970.7 0.4 67
2018-02-20 10:00:00 10.9 28 Oeste 43 Oeste 0 970.6 0.3 72
2018-02-20 09:00:00 9.6 27 Oeste 47 Oeste 0 970.5 0.1 79
2018-02-20 08:00:00 8.9 23 Oeste 36 Oeste 0 970.3 0.3 84
2018-02-20 07:00:00 7.6 20 Oeste 34 Oeste 0 970.3 0.1 89
2018-02-20 06:00:00 8.1 27 Oeste 37 Oeste 0 970.4 -0.3 86
2018-02-20 05:00:00 8.6 24 Oeste 37 Oeste 0 970 -0.9 83
2018-02-20 04:00:00 8.3 21 Oeste 33 Oeste 0 970.2 -1.1 85
2018-02-20 03:00:00 8.5 21 Oeste 28 Sudoeste 0 970.7 -0.9 83
2018-02-20 02:00:00 9 17 Oeste 32 Oeste 0 970.9 -0.8 81
2018-02-20 01:00:00 9.6 21 Oeste 44 Oeste 0 971.3 -0.4 80
2018-02-20 00:00:00 9.8 16 Oeste 41 Oeste 0 971.6 -0.3 79
2018-02-19 23:00:00 10 17 Oeste 32 Sudoeste 0 971.7 -0.2 77
2018-02-19 22:00:00 10.3 22 Oeste 39 Oeste 0 971.7 -0.3 77
2018-02-19 21:00:00 10.8 29 Oeste 42 Oeste 0 971.9 -0.2 74
2018-02-19 20:00:00 11.4 28 Oeste 40 Oeste 0 971.9 -0.3 72
2018-02-19 19:00:00 12.5 25 Oeste 37 Oeste 0 972 -0.4 65
2018-02-19 18:00:00 13.3 26 Oeste 39 Oeste 0 972.1 -0.7 62
2018-02-19 17:00:00 14.2 25 Oeste 40 Oeste 0 972.2 -1 58
2018-02-19 16:00:00 14.8 23 Oeste 37 Sudoeste 0 972.4 -1.5 56
2018-02-19 15:00:00 14.2 23 Oeste 37 Oeste 0 972.8 -1.6 58
2018-02-19 14:00:00 13.9 23 Oeste 35 Oeste 0 973.2 -1.3 58
2018-02-19 13:00:00 13.4 17 Oeste 28 Oeste 0 973.9 -0.7 57
2018-02-19 12:00:00 13.6 18 Oeste 31 Oeste 0 974.4 -0.2 62
2018-02-19 11:00:00 11.6 23 Oeste 33 Oeste 0 974.5 0 69
2018-02-19 10:00:00 9.5 21 Oeste 29 Oeste 0 974.6 0.4 76
2018-02-19 09:00:00 6.5 15 Oeste 24 Oeste 0 974.6 0.5 89
2018-02-19 08:00:00 3.6 14 Oeste 19 Oeste 0 974.5 0.4 94
2018-02-19 07:00:00 3.9 14 Oeste 23 Oeste 0 974.2 -0.2 92
2018-02-19 06:00:00 3.6 13 Oeste 20 Oeste 0 974.1 -0.6 91
2018-02-19 05:00:00 4.7 14 Oeste 23 Sudoeste 0 974.1 -1 89
2018-02-19 04:00:00 5.1 13 Oeste 23 Oeste 0 974.4 -1.1 86
2018-02-19 03:00:00 6.2 17 Oeste 26 Oeste 0 974.7 -1 84
2018-02-19 02:00:00 6.2 16 Oeste 25 Oeste 0 975.1 -1.1 84
2018-02-19 01:00:00 6.9 18 Oeste 31 Oeste 0 975.5 -1 81
2018-02-19 00:00:00 8.3 21 Oeste 32 Oeste 0 975.7 -0.8 77
2018-02-18 23:00:00 8.5 20 Oeste 30 Sudoeste 0 976.2 -0.5 77
2018-02-18 22:00:00 8.8 14 Sudoeste 28 Oeste 0 976.5 -0.1 75
2018-02-18 21:00:00 9.8 13 Sudoeste 31 Oeste 0 976.5 0 72
2018-02-18 20:00:00 10.3 19 Oeste 32 Oeste 0 976.7 0.2 68
2018-02-18 19:00:00 11.1 19 Oeste 32 Oeste 0 976.6 -0.4 63
2018-02-18 18:00:00 11.8 23 Oeste 37 Oeste 0 976.5 -0.9 57
2018-02-18 17:00:00 13.1 22 Oeste 34 Sudoeste 0 976.5 -1.8 53
2018-02-18 16:00:00 13 19 Oeste 34 Oeste 0 977 -2.3 41
2018-02-18 15:00:00 13.4 18 Oeste 36 Oeste 0 977.4 -2.4 41
2018-02-18 14:00:00 13 19 Oeste 34 Oeste 0 978.3 -1.7 41
2018-02-18 13:00:00 11.4 21 Oeste 33 Oeste 0 979.3 -0.6 47
2018-02-18 12:00:00 9.5 19 Oeste 30 Sudoeste 0 979.8 -0.1 59
2018-02-18 11:00:00 7.4 16 Oeste 33 Oeste 0 980 0.2 72
2018-02-18 10:00:00 5.1 23 Oeste 33 Oeste 0 979.9 0.3 81
2018-02-18 09:00:00 2.8 18 Oeste 27 Oeste 0 979.9 0.4 91
2018-02-18 08:00:00 1 17 Oeste 24 Oeste 0 979.8 0.3 94
2018-02-18 07:00:00 1.8 16 Oeste 24 Sudoeste 0 979.6 -0.1 92
2018-02-18 06:00:00 2 14 Oeste 20 Oeste 0 979.5 -0.3 91
2018-02-18 05:00:00 2.2 10 Oeste 16 Oeste 0 979.5 -0.2 90
2018-02-18 04:00:00 2.9 10 Oeste 19 Oeste 0 979.7 -0.2 87
2018-02-18 03:00:00 3.7 14 Oeste 33 Oeste 0 979.8 0.1 84
2018-02-18 02:00:00 4 20 Sudoeste 32 Sudoeste 0 979.7 0.1 84
2018-02-18 01:00:00 4.4 20 Sudoeste 35 Sudoeste 0 979.9 0.6 83
2018-02-18 00:00:00 4.9 25 Sudoeste 42 Oeste 0 979.7 1.2 80
2018-02-17 23:00:00 5.8 31 Oeste 48 Oeste 0 979.6 0.6 75
2018-02-17 22:00:00 7 36 Oeste 62 Oeste 0 979.3 1 68
2018-02-17 21:00:00 7.6 36 Oeste 57 Oeste 0 978.5 0.7 66
2018-02-17 20:00:00 8.1 29 Oeste 51 Oeste 0 979 1.2 64
2018-02-17 19:00:00 10.1 33 Oeste 61 Oeste 0 978.3 0.7 53
2018-02-17 18:00:00 11.8 37 Oeste 60 Oeste 0 977.8 0.3 52
2018-02-17 17:00:00 12.5 35 Oeste 62 Oeste 0 977.8 -0.1 55
2018-02-17 16:00:00 14 41 Oeste 63 Sudoeste 0 977.6 -0.8 51
2018-02-17 15:00:00 13.6 43 Oeste 64 Oeste 0 977.5 -1.1 53
2018-02-17 14:00:00 14.1 42 Oeste 63 Oeste 0 977.9 -0.3 55
2018-02-17 13:00:00 14.5 37 Oeste 56 Oeste 0 978.4 0.4 57
2018-02-17 12:00:00 11.9 34 Oeste 49 Oeste 0 978.6 1 71
2018-02-17 11:00:00 11.2 31 Oeste 44 Oeste 0 978.2 0.8 86
2018-02-17 10:00:00 9.3 23 Oeste 35 Sudoeste 0 978 0.9 96
2018-02-17 09:00:00 8.2 19 Oeste 32 Oeste 0 977.6 0.6 99
2018-02-17 08:00:00 7.5 9 Oeste 18 Noroeste 0 977.4 0.5 98
2018-02-17 07:00:00 8.1 6 Sudoeste 14 Oeste 0 977.1 0 96
2018-02-17 06:00:00 8.6 11 Oeste 17 Oeste 0 977 -0.7 95
2018-02-17 05:00:00 8.2 5 Oeste 8 Oeste 0 976.9 -0.9 93
2018-02-17 04:00:00 9.7 6 Noroeste 12 Noroeste 0 977.1 -1 89
2018-02-17 03:00:00 10.4 7 Noroeste 13 Noroeste 0 977.7 -0.7 89
2018-02-17 02:00:00 10.8 8 Noroeste 13 Noroeste 0 977.8 -0.5 89
2018-02-17 01:00:00 10.8 7 Noroeste 12 Noroeste 0 978.1 -0.2 87
2018-02-17 00:00:00 11 7 Noroeste 13 Norte 0 978.4 0.2 88
2018-02-16 23:00:00 11.6 7 Noroeste 11 Noroeste 0 978.3 -0.2 83
2018-02-16 22:00:00 11.9 5 Noroeste 8 Noroeste 0 978.3 0.1 82
2018-02-16 21:00:00 11.8 3 Norte 5 Norte 0 978.2 0 83
2018-02-16 20:00:00 12.1 0 Calma 9 Este 0 978.5 0 84
2018-02-16 19:00:00 13.1 7 Este 12 Este 0 978.2 -0.8 82
2018-02-16 18:00:00 14.4 10 Este 14 Este 0 978.2 -1.1 77
2018-02-16 17:00:00 15.4 7 Nordeste 13 Norte 0 978.5 -1.8 73
2018-02-16 16:00:00 15.2 5 Este 12 Nordeste 0 979 -2.1 73
2018-02-16 15:00:00 14.7 3 Norte 16 Noroeste 0 979.3 -2.2 75
2018-02-16 14:00:00 14.2 3 Norte 10 Nordeste 0.2 980.3 -1.4 79
2018-02-16 13:00:00 14.6 4 Norte 9 Nordeste 0 981.1 -0.4 73
2018-02-16 12:00:00 13.1 5 Nordeste 10 Nordeste 0 981.5 0.3 80
2018-02-16 11:00:00 11.7 3 Noroeste 6 Sur 0 981.7 0.9 86
2018-02-16 10:00:00 10.3 0 Calma 4 Sur 0 981.5 0.9 90
2018-02-16 09:00:00 9.5 2 Oeste 6 Oeste 0 981.2 0.6 91
2018-02-16 08:00:00 8.9 3 Oeste 6 Sur 0 980.8 0.4 90
2018-02-16 07:00:00 9.2 5 Sudeste 7 Norte 0 980.6 -0.2 89
2018-02-16 06:00:00 9.5 2 Norte 6 Norte 0 980.6 -0.5 86
2018-02-16 05:00:00 10.4 4 Nordeste 6 Nordeste 0 980.4 -0.7 86
2018-02-16 04:00:00 10.3 4 Oeste 6 Sur 0 980.8 -0.5 84
2018-02-16 03:00:00 10.5 4 Sur 7 Sudeste 0 981.1 -0.3 82
2018-02-16 02:00:00 10.5 2 Norte 7 Oeste 0 981.1 -0.3 82
2018-02-16 01:00:00 10 4 Oeste 7 Oeste 0 981.3 0 81
2018-02-16 00:00:00 10.6 3 Sudoeste 6 Sudoeste 0 981.4 0.4 78
2018-02-15 23:00:00 12.1 3 Oeste 6 Noroeste 0 981.4 0.8 76
2018-02-15 22:00:00 12.4 5 Oeste 11 Oeste 0 981.3 1.2 74
2018-02-15 21:00:00 12.3 9 Oeste 14 Oeste 0 981 1.3 74
2018-02-15 20:00:00 13.8 4 Oeste 11 Noroeste 0 980.6 1 65
2018-02-15 19:00:00 13.9 8 Oeste 11 Oeste 0 980.1 0.9 65
2018-02-15 18:00:00 17.2 9 Oeste 21 Oeste 0 979.7 0.3 54
2018-02-15 17:00:00 18.5 12 Oeste 24 Oeste 0 979.6 -0.4 50
2018-02-15 16:00:00 18.6 16 Oeste 28 Oeste 0 979.2 -1 50
2018-02-15 15:00:00 18.2 17 Oeste 28 Oeste 0 979.4 -1.4 51
2018-02-15 14:00:00 17.5 18 Oeste 31 Oeste 0 980 -0.6 54
2018-02-15 13:00:00 16.5 18 Oeste 35 Sudoeste 0 980.2 0.2 58
2018-02-15 12:00:00 14.1 13 Oeste 21 Oeste 0 980.8 1.2 68
2018-02-15 11:00:00 11.9 12 Oeste 23 Sudoeste 0 980.6 2 76
2018-02-15 10:00:00 9.8 7 Oeste 19 Oeste 0 980 2.1 82
2018-02-15 09:00:00 10.2 5 Sudoeste 19 Noroeste 0 979.6 1.7 80
2018-02-15 08:00:00 5.9 11 Oeste 16 Oeste 0 978.6 1.4 90
2018-02-15 07:00:00 5.3 5 Sur 11 Oeste 0 977.9 1 92
2018-02-15 06:00:00 5.5 4 Sudoeste 13 Sur 0 977.9 1.3 92
2018-02-15 05:00:00 5 4 Oeste 12 Oeste 0 977.2 1.2 88
2018-02-15 04:00:00 8.3 10 Oeste 24 Oeste 0 976.9 0.9 84
2018-02-15 03:00:00 8.8 19 Oeste 31 Oeste 0 976.6 1.1 84
2018-02-15 02:00:00 9.3 24 Oeste 33 Oeste 0 976 0.4 82
2018-02-15 01:00:00 8.2 17 Oeste 24 Oeste 0 976 0.2 87
2018-02-15 00:00:00 8.6 16 Oeste 26 Oeste 0 975.5 0 86
2018-02-14 23:00:00 9 16 Oeste 23 Oeste 0 975.6 0.6 87
2018-02-14 22:00:00 8.2 8 Sudoeste 14 Sudoeste 0 975.8 1.2 87
2018-02-14 21:00:00 9.6 8 Sudoeste 12 Sudoeste 0 975.5 1.1 84
2018-02-14 20:00:00 9.7 8 Oeste 12 Oeste 0 975 0.7 83
2018-02-14 19:00:00 9.4 8 Oeste 18 Sudoeste 0 974.6 0.6 83
2018-02-14 18:00:00 11.1 13 Oeste 28 Oeste 0 974.4 0.5 75
2018-02-14 17:00:00 12.3 19 Oeste 31 Oeste 0 974.3 0.5 71
2018-02-14 16:00:00 12.9 19 Oeste 28 Oeste 0 974 0 67
2018-02-14 15:00:00 12.8 18 Oeste 28 Oeste 0 973.9 -0.4 64
2018-02-14 14:00:00 12.5 19 Oeste 35 Oeste 0 973.8 -0.2 64
2018-02-14 13:00:00 12.3 19 Oeste 28 Sudoeste 0 974 0.2 63
2018-02-14 12:00:00 10.4 15 Oeste 23 Oeste 0 974.3 1 67
2018-02-14 11:00:00 8.5 13 Oeste 21 Oeste 0 974 1.2 70
2018-02-14 10:00:00 5.4 7 Sudoeste 13 Sudoeste 0 973.8 1.2 82
2018-02-14 09:00:00 4.1 6 Sudoeste 14 Oeste 0 973.3 0.7 82
2018-02-14 08:00:00 3.5 9 Oeste 13 Oeste 0 972.8 0.5 84
2018-02-14 07:00:00 3.7 8 Oeste 17 Oeste 0 972.6 0.3 83
2018-02-14 06:00:00 5.1 12 Oeste 24 Oeste 0 972.6 -0.3 80
2018-02-14 05:00:00 4.4 15 Oeste 26 Oeste 0 972.3 -0.8 83
2018-02-14 04:00:00 4 18 Oeste 26 Oeste 0 972.3 -0.6 81
2018-02-14 03:00:00 3.6 12 Oeste 27 Oeste 0 972.9 -0.3 80
2018-02-14 02:00:00 5.1 21 Oeste 30 Oeste 0 973.1 0.1 74
2018-02-14 01:00:00 4.5 21 Oeste 30 Oeste 0 972.9 0.1 74
2018-02-14 00:00:00 3.4 19 Oeste 25 Oeste 0 973.2 0.4 78
2018-02-13 23:00:00 2.6 13 Oeste 25 Oeste 0 973 0.6 80
2018-02-13 22:00:00 4.3 17 Oeste 28 Oeste 0 972.8 0.6 71
2018-02-13 21:00:00 3.5 14 Oeste 19 Oeste 0 972.8 0.4 77
2018-02-13 20:00:00 4.7 10 Oeste 22 Oeste 0 972.4 0.5 73
2018-02-13 19:00:00 5.8 15 Oeste 33 Sudoeste 0 972.2 -0.2 69
2018-02-13 18:00:00 7.2 21 Oeste 36 Oeste 0 972.4 -0.4 63
2018-02-13 17:00:00 7.3 22 Oeste 36 Oeste 0 971.9 -2 60
2018-02-13 16:00:00 6.5 15 Oeste 32 Oeste 0 972.4 -1.8 60
2018-02-13 15:00:00 5.8 16 Sudoeste 32 Sudoeste 0 972.8 -1.6 65
2018-02-13 14:00:00 5.4 21 Oeste 35 Oeste 0 973.9 -1.5 63
2018-02-13 13:00:00 5.9 7 Noroeste 14 Noroeste 0 974.2 -1.4 55
2018-02-13 12:00:00 4.3 5 Sudeste 12 Sudeste 0 974.4 -1.3 64
2018-02-13 11:00:00 2.7 6 Sudeste 10 Sudeste 0 975.4 -0.3 68
2018-02-13 10:00:00 1 4 Este 7 Nordeste 0 975.6 0.3 75
2018-02-13 09:00:00 -1.8 4 Nordeste 13 Nordeste 0 975.7 0 81
2018-02-13 08:00:00 -1.7 6 Este 13 Oeste 0 975.7 -0.4 81
2018-02-13 07:00:00 -1 13 Oeste 31 Oeste 0 975.3 -1.3 81
2018-02-13 06:00:00 -1.2 19 Oeste 29 Oeste 0 975.7 -0.8 85
2018-02-13 05:00:00 -1.4 18 Oeste 26 Oeste 0 976.1 -0.8 85
2018-02-13 04:00:00 -1.4 10 Sudoeste 35 Oeste 0 976.6 -0.2 85
2018-02-13 03:00:00 -0.5 24 Oeste 34 Oeste 0 976.5 0.2 83
2018-02-13 02:00:00 -0.4 22 Oeste 31 Oeste 0 976.9 0.4 83
2018-02-13 01:00:00 0.3 22 Oeste 36 Oeste 0 976.8 0.8 78
2018-02-13 00:00:00 1.3 28 Oeste 40 Oeste 0 976.3 1.2 70
2018-02-12 23:00:00 0.6 13 Oeste 21 Oeste 0 976.5 1.9 65
2018-02-12 22:00:00 0.8 9 Oeste 40 Oeste 0 976 1.9 64
2018-02-12 21:00:00 2.3 24 Oeste 43 Oeste 0 975.1 2.1 56
2018-02-12 20:00:00 3.9 27 Oeste 39 Oeste 0 974.6 2.1 49
2018-02-12 19:00:00 5.4 32 Oeste 56 Oeste 0 974.1 1.9 43
2018-02-12 18:00:00 7.4 43 Oeste 62 Oeste 0 973 0.7 37
2018-02-12 17:00:00 9.1 42 Oeste 61 Oeste 0 972.5 -0.7 36
2018-02-12 16:00:00 10.2 37 Oeste 61 Oeste 0 972.2 -1.4 34
2018-02-12 15:00:00 10.5 39 Oeste 57 Oeste 0 972.3 -2 40
2018-02-12 14:00:00 10 41 Oeste 58 Oeste 0 973.2 -0.9 48
2018-02-12 13:00:00 9.5 37 Oeste 52 Oeste 0 973.6 -0.3 52
2018-02-12 12:00:00 6.8 33 Oeste 52 Oeste 0 974.3 0.7 64
2018-02-12 11:00:00 6.2 40 Oeste 62 Oeste 0 974.1 0.7 67
2018-02-12 10:00:00 5.8 36 Oeste 59 Oeste 0 973.9 0.7 69
2018-02-12 09:00:00 5 33 Oeste 52 Oeste 0 973.6 0.4 78
2018-02-12 08:00:00 4.2 37 Oeste 53 Oeste 0 973.4 0 80
2018-02-12 07:00:00 4.3 30 Sudoeste 50 Sudoeste 0 973.2 -0.4 82
2018-02-12 06:00:00 5.3 33 Oeste 50 Oeste 0 973.2 -0.1 80
2018-02-12 05:00:00 5.6 29 Oeste 43 Oeste 0 973.4 -0.1 84
2018-02-12 04:00:00 6.3 24 Sudoeste 48 Oeste 0 973.6 0.1 82
2018-02-12 03:00:00 6.4 30 Oeste 46 Oeste 0 973.3 -0.2 83
2018-02-12 02:00:00 6.6 27 Oeste 49 Oeste 0 973.5 -0.2 85
2018-02-12 01:00:00 7.4 31 Oeste 43 Oeste 0 973.5 -0.1 84
2018-02-12 00:00:00 8.1 26 Oeste 39 Oeste 0 973.5 0 88
2018-02-11 23:00:00 8.3 21 Sudoeste 32 Oeste 0 973.7 0.6 91
2018-02-11 22:00:00 8.5 17 Oeste 36 Oeste 0 973.6 0.6 89
2018-02-11 21:00:00 9.2 19 Oeste 31 Oeste 0 973.5 0.6 87
2018-02-11 20:00:00 10.1 20 Oeste 36 Oeste 0 973.1 0.4 80
2018-02-11 19:00:00 11.8 25 Oeste 45 Oeste 0 973 0.4 72
2018-02-11 18:00:00 13.7 26 Oeste 40 Oeste 0 972.9 0.1 60
2018-02-11 17:00:00 14.8 31 Oeste 52 Oeste 0 972.7 -0.3 56
2018-02-11 16:00:00 15.6 35 Oeste 56 Oeste 0 972.6 -0.9 55
2018-02-11 15:00:00 15.6 35 Oeste 56 Oeste 0 972.8 -1.3 57
2018-02-11 14:00:00 14.2 40 Oeste 59 Oeste 0 973 -1.4 62
2018-02-11 13:00:00 13 30 Oeste 45 Oeste 0 973.5 -1 65
2018-02-11 12:00:00 11.7 31 Oeste 46 Oeste 0 974.1 -0.4 69
2018-02-11 11:00:00 9 29 Oeste 45 Oeste 0 974.4 0.5 76
2018-02-11 10:00:00 7.5 26 Oeste 46 Oeste 0 974.5 0.7 83
2018-02-11 09:00:00 5.6 27 Oeste 38 Oeste 0 974.5 0 87
2018-02-11 08:00:00 4 24 Oeste 39 Oeste 0 973.9 -0.6 90
2018-02-11 07:00:00 4.9 24 Oeste 36 Oeste 0 973.8 -1.1 87
2018-02-11 06:00:00 5 14 Oeste 30 Oeste 0 974.5 -0.7 85
2018-02-11 05:00:00 3.7 16 Oeste 26 Sudoeste 0 974.5 -0.9 90
2018-02-11 04:00:00 2.6 16 Oeste 26 Oeste 0 974.9 -0.7 92
2018-02-11 03:00:00 2.7 18 Oeste 26 Oeste 0 975.2 -0.3 89
2018-02-11 02:00:00 2.5 19 Oeste 27 Oeste 0 975.4 -0.2 88
2018-02-11 01:00:00 2.1 19 Oeste 28 Oeste 0 975.6 -0.2 87
2018-02-11 00:00:00 1.5 19 Oeste 33 Oeste 0 975.5 0.1 87
2018-02-10 23:00:00 2.6 25 Oeste 33 Oeste 0 975.6 0.6 82
2018-02-10 22:00:00 2.2 17 Sudoeste 31 Oeste 0 975.8 1 80
2018-02-10 21:00:00 2.9 19 Oeste 37 Oeste 0 975.4 1.3 75
2018-02-10 20:00:00 4.6 30 Oeste 39 Oeste 0 975 1.1 65
2018-02-10 19:00:00 6.1 26 Oeste 52 Oeste 0 974.8 0.8 56
2018-02-10 18:00:00 8.2 22 Oeste 48 Oeste 0 974.1 -0.2 47
2018-02-10 17:00:00 9.7 27 Noroeste 47 Oeste 0 973.9 -1 32
2018-02-10 16:00:00 10.6 21 Noroeste 48 Noroeste 0 974 -1.7 28
2018-02-10 15:00:00 10.5 26 Noroeste 46 Noroeste 0 974.3 -2.3 27
2018-02-10 14:00:00 10.2 22 Noroeste 42 Noroeste 0 974.9 -1.5 28
2018-02-10 13:00:00 9.2 27 Noroeste 47 Noroeste 0 975.7 -0.8 31
2018-02-10 12:00:00 7.7 24 Oeste 44 Oeste 0 976.6 0.2 52
2018-02-10 11:00:00 5.4 34 Oeste 47 Oeste 0 976.4 0.5 64
2018-02-10 10:00:00 2.8 34 Oeste 45 Oeste 0 976.5 0.8 77
2018-02-10 09:00:00 1.3 27 Oeste 39 Oeste 0 976.4 1 81
2018-02-10 08:00:00 1 30 Oeste 42 Oeste 0 975.9 0.4 84
2018-02-10 07:00:00 0.8 23 Oeste 45 Oeste 0 975.7 0.6 84
2018-02-10 06:00:00 1.2 24 Oeste 37 Oeste 0 975.4 -0.3 77
2018-02-10 05:00:00 1 26 Oeste 49 Oeste 0 975.5 0.2 84
2018-02-10 04:00:00 1.4 35 Oeste 49 Oeste 0 975.1 -0.3 82
2018-02-10 03:00:00 2.2 39 Oeste 60 Oeste 0 975.7 0.8 79
2018-02-10 02:00:00 2.5 38 Oeste 53 Oeste 0 975.3 0.6 78
2018-02-10 01:00:00 2.9 38 Oeste 54 Oeste 0 975.4 0.9 76
2018-02-10 00:00:00 3.3 41 Oeste 55 Oeste 0 974.9 0.4 81
2018-02-09 23:00:00 3 36 Oeste 63 Oeste 0 974.7 0.8 84
2018-02-09 22:00:00 4.1 44 Oeste 61 Sudoeste 0 974.5 0.9 82
2018-02-09 21:00:00 4.7 28 Oeste 44 Oeste 0 974.5 1 87
2018-02-09 20:00:00 3.8 23 Oeste 40 Oeste 0 973.9 0.6 86
2018-02-09 19:00:00 4.6 22 Oeste 37 Oeste 0 973.6 0 78
2018-02-09 18:00:00 5.7 15 Oeste 32 Oeste 0 973.5 -0.2 67
2018-02-09 17:00:00 6.4 19 Oeste 35 Oeste 0 973.3 -1.2 57
2018-02-09 16:00:00 7.4 23 Oeste 39 Oeste 0 973.6 -2 53
2018-02-09 15:00:00 7.2 14 Oeste 28 Sudoeste 0 973.7 -2.4 54
2018-02-09 14:00:00 6.9 15 Sudoeste 31 Oeste 0 974.5 -1.6 51
2018-02-09 13:00:00 5.5 18 Oeste 29 Oeste 0 975.6 -0.2 59
2018-02-09 12:00:00 4.4 23 Oeste 36 Oeste 0 976.1 0.4 66
2018-02-09 11:00:00 1.8 18 Oeste 25 Oeste 0 976.1 0.8 78
2018-02-09 10:00:00 -0.1 13 Sudoeste 20 Oeste 0 975.8 0.4 84
2018-02-09 09:00:00 -2.4 0 Calma 17 Oeste 0 975.7 0.1 85
2018-02-09 08:00:00 -2.8 12 Oeste 17 Oeste 0 975.3 -0.2 85
2018-02-09 07:00:00 -3.2 6 Oeste 15 Oeste 0 975.4 -0.3 88
2018-02-09 06:00:00 -2.8 9 Oeste 16 Oeste 0 975.6 -0.5 85
2018-02-09 05:00:00 -2.9 8 Oeste 11 Oeste 0 975.5 -0.5 88
2018-02-09 04:00:00 -2.6 6 Oeste 10 Oeste 0 975.7 -0.3 87
2018-02-09 03:00:00 -2.3 6 Oeste 9 Oeste 0 976.1 0.3 87
2018-02-09 02:00:00 -2 4 Oeste 13 Oeste 0 976 0.3 86
2018-02-09 01:00:00 -1.9 7 Oeste 15 Oeste 0 976 0.4 87
2018-02-09 00:00:00 -1.2 8 Oeste 12 Oeste 0 975.8 0.5 85
2018-02-08 23:00:00 -0.2 8 Oeste 12 Oeste 0 975.7 0.5 80
2018-02-08 22:00:00 0.2 10 Oeste 14 Oeste 0 975.6 0.8 78
2018-02-08 21:00:00 0.9 4 Sudoeste 8 Sur 0 975.3 1.3 76
2018-02-08 20:00:00 2.3 6 Este 15 Este 0 975.2 1.9 69
2018-02-08 19:00:00 3.8 4 Sur 11 Nordeste 0 974.8 1.9 67
2018-02-08 18:00:00 4.4 7 Nordeste 17 Nordeste 0 974 1 65
2018-02-08 17:00:00 5.2 12 Este 24 Nordeste 0 973.3 -0.2 64
2018-02-08 16:00:00 6.3 15 Este 27 Oeste 0 972.9 -1.1 59
2018-02-08 15:00:00 6.7 20 Oeste 30 Noroeste 0 973 -1.6 51
2018-02-08 14:00:00 7 21 Noroeste 38 Oeste 0 973.5 -1 45
2018-02-08 13:00:00 5.9 22 Oeste 37 Oeste 0 974 -0.5 56
2018-02-08 12:00:00 5.1 31 Oeste 44 Oeste 0 974.6 0.2 61
2018-02-08 11:00:00 3.5 33 Oeste 45 Oeste 0 974.5 0.3 69
2018-02-08 10:00:00 1.3 23 Oeste 43 Oeste 0 974.5 0.3 82
2018-02-08 09:00:00 0 25 Oeste 37 Oeste 0 974.4 0.1 84
2018-02-08 08:00:00 -1.2 21 Oeste 37 Oeste 0 974.2 0.2 89
2018-02-08 07:00:00 -1.1 23 Oeste 34 Oeste 0 974.2 0 88
2018-02-08 06:00:00 -1.7 18 Oeste 27 Oeste 0 974.3 0 90
2018-02-08 05:00:00 -1.4 19 Sudoeste 26 Oeste 0 974 0 86
2018-02-08 04:00:00 -1.8 12 Sudoeste 24 Oeste 0 974.2 0.3 85
2018-02-08 03:00:00 -1.8 12 Oeste 24 Sudoeste 0 974.3 0.6 83
2018-02-08 02:00:00 -1.3 11 Sudoeste 24 Oeste 0 974 0.7 80
2018-02-08 01:00:00 -1.2 15 Oeste 25 Sudoeste 0 973.9 0.9 84
2018-02-08 00:00:00 -0.6 18 Oeste 27 Oeste 0 973.7 1 83
2018-02-07 23:00:00 -0.5 18 Oeste 28 Oeste 0 973.3 0.8 84
2018-02-07 22:00:00 0 20 Oeste 32 Oeste 0 973 1.1 81
2018-02-07 21:00:00 0.3 19 Oeste 33 Oeste 0 972.7 1.6 78
2018-02-07 20:00:00 0.9 22 Oeste 34 Oeste 0 972.5 1.9 74
2018-02-07 19:00:00 2.3 23 Oeste 41 Oeste 0 971.9 1.6 63
2018-02-07 18:00:00 4.4 26 Oeste 46 Oeste 0 971.1 0.9 56
2018-02-07 17:00:00 6.2 31 Oeste 54 Oeste 0 970.6 -0.1 51
2018-02-07 16:00:00 7.2 30 Oeste 51 Oeste 0 970.3 -0.5 44
2018-02-07 15:00:00 7.2 32 Oeste 49 Oeste 0 970.2 -0.6 51
2018-02-07 14:00:00 6.9 31 Oeste 47 Oeste 0 970.7 0.5 53
2018-02-07 13:00:00 6.1 30 Oeste 41 Oeste 0 970.8 1.3 54
2018-02-07 12:00:00 4.8 29 Oeste 43 Oeste 0 970.8 2 61
2018-02-07 11:00:00 2.9 25 Oeste 39 Oeste 0 970.2 2.1 69
2018-02-07 10:00:00 1.5 26 Oeste 40 Oeste 0 969.5 2 75
2018-02-07 09:00:00 0.1 26 Oeste 36 Oeste 0 968.8 1.6 80
2018-02-07 08:00:00 -0.7 22 Oeste 33 Oeste 0 968.1 1.1 84
2018-02-07 07:00:00 -0.8 22 Oeste 35 Sudoeste 0 967.5 0.6 85
2018-02-07 06:00:00 -0.6 23 Oeste 33 Sudoeste 0 967.2 0.3 85
2018-02-07 05:00:00 -0.5 21 Oeste 34 Oeste 0 967 0.3 84
2018-02-07 04:00:00 -0.3 22 Oeste 36 Oeste 0 966.9 0.3 83
2018-02-07 03:00:00 -0.2 19 Oeste 33 Oeste 0 966.9 0.3 83
2018-02-07 02:00:00 0.2 24 Oeste 38 Oeste 0 966.7 0 81
2018-02-07 01:00:00 0.2 22 Oeste 33 Oeste 0 966.6 0.3 82
2018-02-07 00:00:00 0.4 22 Oeste 34 Sudoeste 0 966.6 0.7 81
2018-02-06 23:00:00 0.4 20 Oeste 35 Oeste 0 966.7 0.9 81
2018-02-06 22:00:00 2 25 Oeste 40 Oeste 0 966.3 1 78
2018-02-06 21:00:00 2.7 25 Oeste 37 Oeste 0 965.9 1.1 70
2018-02-06 20:00:00 2.9 20 Oeste 32 Oeste 0 965.8 1 75
2018-02-06 19:00:00 3.3 21 Oeste 34 Oeste 0 965.3 0.4 73
2018-02-06 18:00:00 3.9 24 Oeste 33 Oeste 0 964.8 -0.3 70
2018-02-06 17:00:00 3.8 20 Oeste 30 Oeste 0 964.8 -0.4 72
2018-02-06 16:00:00 3.3 14 Oeste 23 Oeste 0.2 964.9 -0.8 82
2018-02-06 15:00:00 3.5 18 Oeste 27 Oeste 0 965.1 -1.1 76
2018-02-06 14:00:00 3.6 19 Oeste 30 Oeste 0 965.2 -0.8 83
2018-02-06 13:00:00 3.6 21 Oeste 31 Oeste 0 965.7 0.1 86
2018-02-06 12:00:00 3.1 19 Oeste 36 Oeste 0 966.2 0.9 90
2018-02-06 11:00:00 2.5 21 Oeste 32 Oeste 0 966 1.4 95
2018-02-06 10:00:00 3.1 12 Oeste 22 Oeste 0.2 965.6 1.3 95
2018-02-06 09:00:00 3 7 Sudoeste 23 Noroeste 0.2 965.3 1 95
2018-02-06 08:00:00 3.5 15 Noroeste 26 Noroeste 0.4 964.6 0.2 94
2018-02-06 07:00:00 4 14 Noroeste 22 Noroeste 0 964.3 -0.3 94
2018-02-06 06:00:00 3.9 12 Noroeste 18 Noroeste 0 964.3 -0.7 95
2018-02-06 05:00:00 3.9 9 Noroeste 17 Noroeste 0.2 964.4 -0.8 95
2018-02-06 04:00:00 4.2 10 Noroeste 15 Noroeste 0 964.6 -1 96
2018-02-06 03:00:00 4.4 9 Noroeste 17 Noroeste 0.4 965 -0.8 96
2018-02-06 02:00:00 4.4 11 Noroeste 19 Noroeste 0.2 965.2 -0.8 96
2018-02-06 01:00:00 4.8 14 Noroeste 21 Noroeste 0.2 965.6 -0.6 96
2018-02-06 00:00:00 4.7 10 Noroeste 14 Noroeste 0.4 965.8 -0.2 97
2018-02-05 23:00:00 4.7 7 Noroeste 10 Noroeste 0 966 0.5 98
2018-02-05 22:00:00 4.9 3 Norte 12 Nordeste 0 966.2 0.9 97
2018-02-05 21:00:00 4.9 7 Nordeste 13 Nordeste 0 966 1.3 98
2018-02-05 20:00:00 4.7 9 Oeste 13 Oeste 0 965.5 1.5 98
2018-02-05 19:00:00 4.8 6 Oeste 10 Oeste 0.2 965.3 1.2 97
2018-02-05 18:00:00 5 5 Oeste 10 Oeste 0 964.7 0.5 95
2018-02-05 17:00:00 5.3 4 Noroeste 9 Sur 0 964 -0.1 95
2018-02-05 16:00:00 5.3 6 Sudoeste 14 Sudoeste 0 964.1 -0.2 94
2018-02-05 15:00:00 5.3 4 Sudeste 10 Norte 0 964.2 -0.3 93
2018-02-05 14:00:00 5.1 3 Nordeste 8 Norte 0 964.1 -0.4 93
2018-02-05 13:00:00 4.9 5 Noroeste 13 Oeste 0 964.3 0 94
2018-02-05 12:00:00 4.5 9 Oeste 14 Oeste 0 964.5 0.4 96
2018-02-05 11:00:00 3.9 9 Oeste 14 Oeste 1.8 964.5 0.7 98
2018-02-05 10:00:00 4.1 3 Oeste 14 Norte 0.8 964.3 0.3 95
2018-02-05 09:00:00 3.9 6 Norte 18 Norte 0 964.1 -0.2 95
2018-02-05 08:00:00 3.8 8 Norte 17 Nordeste 0 963.8 -0.8 96
2018-02-05 07:00:00 3.8 7 Norte 19 Nordeste 0.2 964 -1.2 97
2018-02-05 06:00:00 3.7 8 Norte 19 Norte 0 964.3 -1.4 96
2018-02-05 05:00:00 3.6 8 Norte 21 Norte 0 964.6 -1.4 96
2018-02-05 04:00:00 3.6 8 Nordeste 16 Nordeste 0.2 965.2 -1.2 97
2018-02-05 03:00:00 3.7 7 Nordeste 17 Nordeste 0 965.7 -1.3 97
2018-02-05 02:00:00 3.8 9 Nordeste 17 Nordeste 0 966 -1.2 97
2018-02-05 01:00:00 3.8 8 Nordeste 14 Nordeste 0 966.4 -0.7 98
2018-02-05 00:00:00 3.9 5 Nordeste 23 Nordeste 0 967 0 98
2018-02-04 23:00:00 4.1 10 Nordeste 16 Nordeste 0 967.2 0.3 98
2018-02-04 22:00:00 4 6 Nordeste 10 Nordeste 0 967.1 0.6 98
2018-02-04 21:00:00 3.8 6 Nordeste 18 Noroeste 0.4 967 0.5 98
2018-02-04 20:00:00 3.6 10 Noroeste 22 Noroeste 0.2 966.9 0.1 97
2018-02-04 19:00:00 3.4 12 Noroeste 22 Norte 0.6 966.5 -0.3 96
2018-02-04 18:00:00 3.9 12 Norte 22 Norte 1.4 966.5 -0.5 95
2018-02-04 17:00:00 4.6 6 Norte 17 Nordeste 1.8 966.8 -0.9 96
2018-02-04 16:00:00 4.6 6 Norte 19 Norte 1 966.8 -1.3 95
2018-02-04 15:00:00 4.6 10 Nordeste 17 Nordeste 0.8 967 -1.5 93
2018-02-04 14:00:00 4.8 12 Este 20 Este 0.4 967.7 -0.6 95
2018-02-04 13:00:00 4.7 11 Este 17 Nordeste 0.8 968.1 0 97
2018-02-04 12:00:00 4.3 9 Nordeste 17 Nordeste 0.4 968.5 0.6 95
2018-02-04 11:00:00 3.9 6 Norte 12 Norte 0 968.3 0.6 93
2018-02-04 10:00:00 4 6 Norte 14 Oeste 0 968.1 0.9 93
2018-02-04 09:00:00 3.4 10 Oeste 15 Oeste 0 967.9 0.9 95
2018-02-04 08:00:00 3 9 Sudoeste 14 Oeste 0 967.7 0.6 95
2018-02-04 07:00:00 2.7 8 Oeste 15 Oeste 0 967.2 0.1 96
2018-02-04 06:00:00 2.7 11 Oeste 18 Oeste 0 967 -0.3 97
2018-02-04 05:00:00 2.6 7 Oeste 21 Oeste 0 967.1 -0.3 96
2018-02-04 04:00:00 3.5 13 Sudoeste 26 Sudoeste 0 967.1 -1.2 96
2018-02-04 03:00:00 2.9 14 Oeste 28 Sudoeste 0 967.3 -1.3 96
2018-02-04 02:00:00 3.4 21 Oeste 32 Oeste 0 967.4 -1 95
2018-02-04 01:00:00 3.8 15 Sudoeste 26 Oeste 0 968.3 -0.4 95
2018-02-04 00:00:00 3.9 18 Sudoeste 39 Oeste 0 968.6 -0.3 92
2018-02-03 23:00:00 3.5 18 Oeste 35 Oeste 0 968.4 -0.6 95
2018-02-03 22:00:00 4.4 19 Sudoeste 32 Oeste 0 968.7 -0.3 92
2018-02-03 21:00:00 4.9 19 Oeste 35 Oeste 0 968.9 0.3 88
2018-02-03 20:00:00 5.7 23 Oeste 40 Oeste 0 969 0.1 84
2018-02-03 19:00:00 6.4 20 Oeste 48 Oeste 0 969 -0.1 83
2018-02-03 18:00:00 8.4 19 Oeste 39 Oeste 0 968.6 -1.2 59
2018-02-03 17:00:00 8.8 27 Oeste 48 Oeste 0 968.9 -1.8 54
2018-02-03 16:00:00 9.5 33 Oeste 53 Oeste 0 969.1 -2.3 52
2018-02-03 15:00:00 9.9 35 Oeste 57 Oeste 0 969.8 -2.1 52
2018-02-03 14:00:00 9 39 Oeste 61 Oeste 0 970.7 -1.2 53
2018-02-03 13:00:00 7.8 41 Oeste 62 Oeste 0 971.4 -0.7 58
2018-02-03 12:00:00 7.8 40 Oeste 55 Oeste 0 971.9 0.3 60
2018-02-03 11:00:00 5.1 36 Oeste 51 Oeste 0 971.9 0.4 73
2018-02-03 10:00:00 3.5 31 Oeste 48 Oeste 0 972.1 0.8 81
2018-02-03 09:00:00 1 32 Oeste 49 Oeste 0 971.6 0.6 89
2018-02-03 08:00:00 0.7 33 Oeste 47 Oeste 0 971.5 0.4 89
2018-02-03 07:00:00 0.9 32 Oeste 44 Oeste 0 971.3 0.6 89
2018-02-03 06:00:00 0.7 28 Oeste 44 Oeste 0 971 0.4 89
2018-02-03 05:00:00 0.8 33 Oeste 53 Oeste 0 971.1 1.2 88
2018-02-03 04:00:00 0.9 32 Oeste 45 Oeste 0 970.7 0.4 87
2018-02-03 03:00:00 0.7 30 Oeste 52 Oeste 0 970.6 0.3 85
2018-02-03 02:00:00 0.9 27 Oeste 41 Oeste 0 969.9 0 84
2018-02-03 01:00:00 0.9 28 Oeste 43 Oeste 0 970.3 0.6 83
2018-02-03 00:00:00 1.2 30 Oeste 43 Oeste 0 970.3 1 82
2018-02-02 23:00:00 2.3 31 Oeste 42 Oeste 0 969.9 1.5 71
2018-02-02 22:00:00 1.6 24 Oeste 36 Oeste 0 969.7 2.6 69
2018-02-02 21:00:00 1.3 17 Oeste 32 Oeste 0 969.3 3.4 70
2018-02-02 20:00:00 1.9 14 Oeste 38 Oeste 0 968.4 3.3 55
2018-02-02 19:00:00 6 27 Oeste 52 Noroeste 0 967.1 2.7 35
2018-02-02 18:00:00 7.1 31 Oeste 55 Noroeste 0 965.9 1.8 30
2018-02-02 17:00:00 8.7 32 Oeste 49 Noroeste 0 965.1 0.6 25
2018-02-02 16:00:00 10.4 27 Noroeste 48 Oeste 0 964.4 -0.6 24
2018-02-02 15:00:00 10.4 28 Noroeste 41 Oeste 0 964.1 -1.4 23
2018-02-02 14:00:00 9.9 25 Oeste 40 Oeste 0 964.5 -1.3 30
2018-02-02 13:00:00 8.8 23 Oeste 40 Oeste 0 965 -0.5 49
2018-02-02 12:00:00 6.2 29 Oeste 40 Oeste 0 965.5 0.1 64
2018-02-02 11:00:00 2.5 21 Oeste 34 Oeste 0 965.8 0.8 79
2018-02-02 10:00:00 0.8 14 Oeste 21 Oeste 0 965.5 1 88
2018-02-02 09:00:00 -1.3 8 Oeste 16 Oeste 0 965.4 0.8 90
2018-02-02 08:00:00 -1 13 Oeste 19 Oeste 0 965 0.6 89
2018-02-02 07:00:00 0.7 10 Oeste 22 Oeste 0 964.5 -0.2 80
2018-02-02 06:00:00 2.9 15 Oeste 26 Noroeste 0 964.6 0 72
2018-02-02 05:00:00 2.8 17 Noroeste 24 Noroeste 0 964.4 -0.1 76
2018-02-02 04:00:00 -0.1 8 Oeste 12 Oeste 0 964.7 0.3 91
2018-02-02 03:00:00 0.3 10 Oeste 14 Oeste 0 964.6 0.2 90
2018-02-02 02:00:00 0.1 9 Oeste 23 Oeste 0 964.5 0.3 90
2018-02-02 01:00:00 0.7 17 Oeste 31 Sudoeste 0 964.4 0 89
2018-02-02 00:00:00 1.4 19 Sudoeste 35 Oeste 0 964.4 0.7 86
2018-02-01 23:00:00 2.3 24 Oeste 37 Oeste 0 964.2 0.7 82
2018-02-01 22:00:00 3.4 27 Oeste 53 Oeste 0 964.4 0.8 80
2018-02-01 21:00:00 4.2 36 Oeste 60 Oeste 0 963.7 0.2 76
2018-02-01 20:00:00 4.5 34 Oeste 54 Oeste 0 963.5 0 77
2018-02-01 19:00:00 5.2 35 Oeste 49 Oeste 0 963.6 -0.1 73
2018-02-01 18:00:00 6.7 32 Oeste 52 Oeste 0 963.5 -0.8 63
2018-02-01 17:00:00 8 30 Oeste 53 Oeste 0 963.5 -2.2 60
2018-02-01 16:00:00 8.4 33 Oeste 60 Oeste 0 963.7 -2.9 65
2018-02-01 15:00:00 8.7 32 Oeste 51 Oeste 0 964.3 -3.2 69
2018-02-01 14:00:00 7.8 16 Sudoeste 35 Sudoeste 0 965.7 -2.3 83
2018-02-01 13:00:00 5.7 17 Sudoeste 37 Oeste 0 966.6 -1.9 94
2018-02-01 12:00:00 4.5 23 Oeste 39 Oeste 0 967.5 -1.2 95
2018-02-01 11:00:00 2.9 22 Oeste 35 Sudoeste 0 968 -1.3 98
2018-02-01 10:00:00 2.4 17 Sudoeste 37 Oeste 0 968.5 -1.6 97
2018-02-01 09:00:00 2.7 26 Oeste 35 Oeste 0 968.7 -1.9 99
2018-02-01 08:00:00 -0.4 18 Oeste 29 Sudoeste 0 969.3 -1.9 99
2018-02-01 07:00:00 -0.6 15 Oeste 22 Oeste 0 970.1 -2.1 99
2018-02-01 06:00:00 -1.1 9 Sudoeste 14 Sudoeste 0 970.6 -2.5 99
2018-02-01 05:00:00 -1.7 7 Sur 11 Sur 0 971.2 -2.3 98
2018-02-01 04:00:00 -1.5 4 Noroeste 14 Noroeste 0 972.2 -1.7 98
2018-02-01 03:00:00 -0.6 3 Oeste 8 Sudeste 0 973.1 -1.2 98
2018-02-01 02:00:00 -1.7 4 Sudeste 8 Sudeste 0 973.5 -1.7 98
2018-02-01 01:00:00 -2 0 Calma 9 Sur 0 973.9 -2.2 95
2018-02-01 00:00:00 0.9 2 Sudeste 9 Noroeste 0 974.3 -2.4 93
2018-01-31 23:00:00 1.3 7 Noroeste 9 Noroeste 0 975.2 -1 97
2018-01-31 22:00:00 1.9 3 Noroeste 7 Oeste 0 976.1 -0.3 96
2018-01-31 21:00:00 1.8 6 Oeste 10 Oeste 0 976.7 -0.3 97
2018-01-31 20:00:00 4.3 4 Este 8 Sur 0 976.2 -1.3 86
2018-01-31 19:00:00 6.3 3 Este 7 Este 0 976.4 -1.9 86
2018-01-31 18:00:00 8.4 4 Este 9 Este 0 977 -2.3 80
2018-01-31 17:00:00 9.2 4 Este 11 Este 0 977.5 -2.9 78
2018-01-31 16:00:00 9.1 7 Este 13 Sudeste 0 978.3 -3.3 81
2018-01-31 15:00:00 9.1 10 Este 17 Este 0 979.3 -3.3 82
2018-01-31 14:00:00 8.2 4 Sudoeste 10 Sur 0 980.4 -2.5 84
2018-01-31 13:00:00 5.1 3 Sur 10 Sur 0 981.6 -1.2 98
2018-01-31 12:00:00 3.8 4 Sur 10 Sur 0 982.6 -0.2 99
2018-01-31 11:00:00 1.1 3 Sudoeste 8 Sudoeste 0 982.9 0.3 99
2018-01-31 10:00:00 -0.9 0 Calma 4 Nordeste 0 982.8 0.3 98
2018-01-31 09:00:00 -2 3 Este 7 Este 0 982.8 0.4 97
2018-01-31 08:00:00 -0.1 4 Oeste 6 Oeste 0 982.6 0.1 97
2018-01-31 07:00:00 -0.4 2 Sudoeste 4 Oeste 0 982.5 -0.5 94
2018-01-31 06:00:00 0.6 0 Calma 6 Oeste 0 982.4 -1 94
2018-01-31 05:00:00 1.5 5 Oeste 8 Oeste 0 982.5 -1.3 95
2018-01-31 04:00:00 2.7 3 Noroeste 19 Norte 0 983 -1.3 91
2018-01-31 03:00:00 3.2 12 Norte 19 Norte 0 983.4 -1 97
2018-01-31 02:00:00 1.7 6 Este 12 Noroeste 0 983.8 -0.9 92
2018-01-31 01:00:00 5.5 9 Noroeste 13 Noroeste 0 984.3 -0.5 90
2018-01-31 00:00:00 5.1 9 Noroeste 13 Noroeste 0 984.4 -0.4 91
2018-01-30 23:00:00 4.5 4 Norte 8 Norte 0 984.7 0.1 92
2018-01-30 22:00:00 4.8 2 Noroeste 8 Noroeste 0 984.8 0.6 91
2018-01-30 21:00:00 5.2 5 Oeste 8 Oeste 0 984.8 0.7 91
2018-01-30 20:00:00 5.9 3 Oeste 6 Norte 0 984.6 0.4 87
2018-01-30 19:00:00 7.8 3 Norte 6 Este 0 984.2 -0.5 84
2018-01-30 18:00:00 9.6 5 Este 12 Este 0 984.1 -1.1 79
2018-01-30 17:00:00 11.6 6 Sudeste 9 Sudeste 0 984.2 -1.8 71
2018-01-30 16:00:00 12 5 Este 10 Nordeste 0 984.7 -2.3 68
2018-01-30 15:00:00 11.6 4 Este 12 Nordeste 0 985.2 -2.4 68
2018-01-30 14:00:00 11.2 4 Este 9 Sudeste 0 986 -2 70
2018-01-30 13:00:00 9.4 3 Nordeste 9 Este 0 987 -0.9 77
2018-01-30 12:00:00 7.3 6 Nordeste 11 Nordeste 0 987.6 -0.4 90
2018-01-30 11:00:00 4.1 6 Este 9 Este 0 988 0.2 99
2018-01-30 10:00:00 2.2 0 Calma 6 Sudeste 0 987.9 0.1 99
2018-01-30 09:00:00 1 2 Oeste 6 Oeste 0 988 0.5 98
2018-01-30 08:00:00 0.9 4 Sudoeste 5 Oeste 0 987.8 0.2 97
2018-01-30 07:00:00 1.3 3 Sudoeste 6 Sudoeste 0 987.8 -0.2 97
2018-01-30 06:00:00 1 2 Oeste 5 Oeste 0 987.5 -0.9 95
2018-01-30 05:00:00 0.9 3 Oeste 6 Oeste 0 987.6 -0.9 94
2018-01-30 04:00:00 1.5 2 Sur 8 Sudeste 0 988 -0.9 91
2018-01-30 03:00:00 3.3 3 Oeste 8 Oeste 0 988.4 -0.4 91
2018-01-30 02:00:00 2.9 5 Oeste 8 Oeste 0 988.5 -0.4 91
2018-01-30 01:00:00 2.6 5 Noroeste 8 Noroeste 0 988.9 0.1 89
2018-01-30 00:00:00 2.9 4 Oeste 6 Oeste 0 988.8 0.3 89
2018-01-29 23:00:00 3.2 3 Sudoeste 5 Sur 0 988.9 0.4 84
2018-01-29 22:00:00 4.5 6 Sudeste 8 Noroeste 0 988.8 0.3 81
2018-01-29 21:00:00 5.4 5 Noroeste 7 Noroeste 0 988.5 0 80
2018-01-29 20:00:00 6.8 5 Noroeste 9 Noroeste 0 988.5 -0.1 78
2018-01-29 19:00:00 8.2 5 Oeste 8 Sudoeste 0 988.5 -0.5 75
2018-01-29 18:00:00 10.7 6 Sudoeste 14 Sudoeste 0 988.5 -1.1 66
2018-01-29 17:00:00 11.9 8 Sudoeste 20 Oeste 0 988.6 -2.2 61
2018-01-29 16:00:00 12.3 14 Oeste 30 Oeste 0 989 -2.8 61
2018-01-29 15:00:00 12.1 17 Oeste 30 Oeste 0 989.6 -3 61
2018-01-29 14:00:00 11 14 Sudoeste 27 Oeste 0 990.8 -2.1 63
2018-01-29 13:00:00 9.8 19 Oeste 29 Sudoeste 0 991.8 -1.2 72
2018-01-29 12:00:00 8.4 18 Oeste 27 Oeste 0 992.6 0.1 76
2018-01-29 11:00:00 7 17 Oeste 26 Oeste 0 992.9 0.4 81
2018-01-29 10:00:00 5.2 13 Noroeste 28 Oeste 0 993 0.5 84
2018-01-29 09:00:00 3.1 19 Oeste 25 Oeste 0 992.5 -0.1 90
2018-01-29 08:00:00 4.6 12 Oeste 24 Oeste 0 992.5 -0.2 84
2018-01-29 07:00:00 2.7 8 Oeste 16 Oeste 0 992.5 -0.7 91
2018-01-29 06:00:00 2.4 10 Oeste 14 Oeste 0 992.6 -0.9 92
2018-01-29 05:00:00 2.5 8 Oeste 12 Oeste 0 992.7 -1 91
2018-01-29 04:00:00 1.7 3 Oeste 8 Sudoeste 0 993.2 -0.8 91
2018-01-29 03:00:00 2.6 6 Oeste 9 Oeste 0 993.5 -0.8 89
2018-01-29 02:00:00 3.5 2 Este 13 Oeste 0 993.7 -0.5 86
2018-01-29 01:00:00 4.8 9 Noroeste 14 Oeste 0 994 -0.3 82
2018-01-29 00:00:00 4.8 4 Sudoeste 12 Oeste 0 994.3 0 81
2018-01-28 23:00:00 5.4 9 Oeste 15 Oeste 0 994.2 0 79
2018-01-28 22:00:00 5.3 12 Oeste 15 Oeste 0 994.3 0.2 82
2018-01-28 21:00:00 5.8 11 Oeste 13 Oeste 0 994.3 0.8 79
2018-01-28 20:00:00 6.2 9 Oeste 13 Oeste 0 994.2 0.9 78
2018-01-28 19:00:00 7 10 Oeste 15 Oeste 0 994.1 0.8 76
2018-01-28 18:00:00 9.8 10 Oeste 18 Oeste 0 993.5 0.2 65
2018-01-28 17:00:00 11 13 Oeste 21 Oeste 0 993.3 -0.5 60
2018-01-28 16:00:00 11.4 10 Sudoeste 17 Sudoeste 0 993.3 -1.3 58
2018-01-28 15:00:00 11.2 9 Oeste 15 Sudoeste 0 993.3 -1.3 59
2018-01-28 14:00:00 9.9 7 Oeste 16 Oeste 0 993.8 -0.6 60
2018-01-28 13:00:00 7.9 8 Oeste 13 Sudoeste 0 994.6 0.9 66
2018-01-28 12:00:00 6.2 9 Oeste 15 Oeste 0 994.6 1.4 79
2018-01-28 11:00:00 5.1 6 Sudoeste 14 Oeste 0 994.4 2.1 83
2018-01-28 10:00:00 3.9 9 Oeste 15 Oeste 0 993.7 2.1 89
2018-01-28 09:00:00 3.5 9 Oeste 18 Oeste 0 993.2 2.1 88
2018-01-28 08:00:00 3 8 Oeste 12 Oeste 0 992.3 1.5 88
2018-01-28 07:00:00 3.4 7 Oeste 12 Oeste 0 991.6 0.7 87
2018-01-28 06:00:00 3.3 4 Oeste 9 Oeste 0 991.1 0.5 85
2018-01-28 05:00:00 3.6 5 Oeste 9 Oeste 0 990.8 -0.1 82
2018-01-28 04:00:00 3.9 5 Sudoeste 11 Sur 0 990.9 0.1 83
2018-01-28 03:00:00 4.8 4 Oeste 11 Sudoeste 0 990.6 0.2 82
2018-01-28 02:00:00 3.8 3 Sudeste 5 Sur 0 990.9 0.8 89
2018-01-28 01:00:00 3.6 3 Sur 10 Sudeste 0 990.8 1.3 88
2018-01-28 00:00:00 4.7 6 Noroeste 14 Oeste 0 990.4 1.7 86
2018-01-27 23:00:00 5.9 0 Calma 6 Este 0 990.1 1.8 84
2018-01-27 22:00:00 6 4 Oeste 11 Noroeste 0 989.5 2.7 84
2018-01-27 21:00:00 6 6 Noroeste 12 Este 0 988.7 2.7 84
2018-01-27 20:00:00 6.7 6 Este 11 Este 0 988.3 3.2 80
2018-01-27 19:00:00 7 8 Oeste 13 Oeste 0 986.8 2.3 77
2018-01-27 18:00:00 8.5 4 Este 8 Este 0 986 2.1 71
2018-01-27 17:00:00 10 7 Nordeste 14 Nordeste 0 985.1 1.2 62
2018-01-27 16:00:00 11 3 Noroeste 18 Oeste 0 984.5 0.3 40
2018-01-27 15:00:00 11.1 10 Sudoeste 24 Oeste 0 983.9 -0.4 47
2018-01-27 14:00:00 10.7 13 Oeste 24 Sudoeste 0 983.9 0.4 49
2018-01-27 13:00:00 10 14 Oeste 24 Oeste 0 984.2 1.4 55
2018-01-27 12:00:00 8.1 19 Oeste 31 Oeste 0 984.3 2.2 64
2018-01-27 11:00:00 6.1 21 Oeste 32 Oeste 0 983.5 2.1 75
2018-01-27 10:00:00 2.8 15 Oeste 27 Oeste 0 982.8 2.3 86
2018-01-27 09:00:00 1.2 16 Oeste 25 Sudoeste 0 982.1 1.8 90
2018-01-27 08:00:00 1 13 Sudoeste 24 Sudoeste 0 981.4 1.6 91
2018-01-27 07:00:00 0.6 15 Oeste 25 Sudoeste 0 980.5 0.9 94
2018-01-27 06:00:00 1 14 Oeste 24 Oeste 0 980.3 0.8 93
2018-01-27 05:00:00 1.4 17 Oeste 31 Oeste 0 979.8 0.4 92
2018-01-27 04:00:00 2.1 14 Sudoeste 27 Sudoeste 0 979.6 0.4 91
2018-01-27 03:00:00 2.1 13 Sudoeste 30 Oeste 0 979.5 0.7 91
2018-01-27 02:00:00 2.3 19 Oeste 30 Oeste 0 979.4 1.3 90
2018-01-27 01:00:00 2.4 15 Sudoeste 29 Sudoeste 0 979.2 1.8 90
2018-01-27 00:00:00 3 14 Sudoeste 29 Oeste 0 978.8 2 86
2018-01-26 23:00:00 3.5 16 Oeste 32 Oeste 0 978.1 1.9 83
2018-01-26 22:00:00 4.8 24 Oeste 37 Oeste 0 977.4 1.8 79
2018-01-26 21:00:00 4.8 24 Oeste 34 Oeste 0 976.8 1.6 83
2018-01-26 20:00:00 6.4 22 Oeste 41 Oeste 0 976.2 1.7 75
2018-01-26 19:00:00 7 23 Oeste 34 Oeste 0 975.6 1.5 71
2018-01-26 18:00:00 7.3 14 Oeste 33 Oeste 0 975.2 1.7 72
2018-01-26 17:00:00 7.9 13 Oeste 42 Oeste 0 974.5 1.1 69
2018-01-26 16:00:00 8.4 23 Noroeste 49 Noroeste 0 974.1 0.1 63
2018-01-26 15:00:00 8.6 32 Oeste 50 Noroeste 0 973.5 -0.6 61
2018-01-26 14:00:00 8.4 26 Noroeste 42 Noroeste 0 973.4 -0.2 66
2018-01-26 13:00:00 7.3 12 Oeste 22 Sudoeste 0 974 0.7 81
2018-01-26 12:00:00 6.6 5 Sudoeste 28 Oeste 0 974.1 2 83
2018-01-26 11:00:00 5.6 10 Sudoeste 23 Sudoeste 0 973.6 1.9 90
2018-01-26 10:00:00 5.2 6 Sudoeste 22 Oeste 0 973.3 2 91
2018-01-26 09:00:00 5.1 10 Sudoeste 24 Oeste 0 972.1 0.5 91
2018-01-26 08:00:00 5.2 14 Oeste 27 Oeste 0.4 971.7 0.5 92
2018-01-26 07:00:00 5.5 13 Oeste 21 Oeste 0.2 971.3 0.3 90
2018-01-26 06:00:00 6.1 17 Oeste 33 Noroeste 0 971.6 0.1 84
2018-01-26 05:00:00 5.8 17 Oeste 27 Noroeste 0 971.2 -0.5 87
2018-01-26 04:00:00 5 14 Sudoeste 32 Oeste 0.2 971 -1 96
2018-01-26 03:00:00 5.1 20 Oeste 33 Sudoeste 0.2 971.5 -1 96
2018-01-26 02:00:00 5.5 21 Oeste 33 Oeste 0.6 971.7 -0.6 97
2018-01-26 01:00:00 6 24 Oeste 35 Oeste 0 972 -0.8 96
2018-01-26 00:00:00 6.9 23 Oeste 37 Oeste 0 972.5 -0.5 97
2018-01-25 23:00:00 7.8 12 Oeste 20 Oeste 0.8 972.3 -0.6 96
2018-01-25 22:00:00 8.5 13 Oeste 26 Oeste 1.2 972.8 -0.1 93
2018-01-25 21:00:00 8.7 14 Noroeste 30 Noroeste 0.8 973 0.3 93
2018-01-25 20:00:00 9.4 18 Noroeste 28 Noroeste 0.2 972.9 0 90
2018-01-25 19:00:00 9.8 13 Oeste 27 Sudoeste 0 972.9 -0.3 88
2018-01-25 18:00:00 10.2 7 Noroeste 12 Norte 0 972.7 -0.9 84
2018-01-25 17:00:00 11.1 4 Norte 18 Nordeste 0 972.9 -1.6 81
2018-01-25 16:00:00 11.3 10 Norte 20 Norte 0 973.2 -2.9 78
2018-01-25 15:00:00 11.9 9 Nordeste 20 Nordeste 0 973.6 -3.3 77
2018-01-25 14:00:00 11.7 13 Nordeste 22 Nordeste 0 974.5 -3.2 79
2018-01-25 13:00:00 10.3 9 Nordeste 24 Nordeste 0 976.1 -1.8 86
2018-01-25 12:00:00 8.9 16 Nordeste 22 Nordeste 0 976.9 -1.3 97
2018-01-25 11:00:00 7.9 12 Nordeste 21 Este 0 977.7 -0.8 99
2018-01-25 10:00:00 7.7 13 Nordeste 19 Nordeste 0 977.9 -0.7 99
2018-01-25 09:00:00 7.4 8 Este 15 Nordeste 0 978.2 -0.6 99
2018-01-25 08:00:00 7.4 10 Este 14 Nordeste 0 978.5 -0.6 99
2018-01-25 07:00:00 7.5 6 Este 14 Nordeste 0 978.6 -1 99
2018-01-25 06:00:00 7.5 6 Este 12 Nordeste 0 978.8 -1.6 98
2018-01-25 05:00:00 7.6 4 Nordeste 13 Nordeste 0 979.1 -1.5 98
2018-01-25 04:00:00 7.2 7 Norte 14 Norte 0 979.6 -1.3 98
2018-01-25 03:00:00 6.4 5 Norte 11 Norte 0 980.4 -1 97
2018-01-25 02:00:00 6.5 4 Norte 10 Nordeste 0 980.6 -0.8 94
2018-01-25 01:00:00 7.2 4 Norte 9 Nordeste 0 980.9 -0.6 94
2018-01-25 00:00:00 7.4 3 Norte 14 Norte 0 981.4 -0.1 90
2018-01-24 23:00:00 8.2 10 Norte 17 Norte 0 981.4 -0.4 86
2018-01-24 22:00:00 8.8 6 Norte 12 Norte 0 981.5 -0.1 85
2018-01-24 21:00:00 9 4 Norte 12 Norte 0 981.5 0 83
2018-01-24 20:00:00 9.7 6 Norte 10 Norte 0 981.8 0.3 81
2018-01-24 19:00:00 10.6 3 Norte 7 Nordeste 0 981.6 -0.3 77
2018-01-24 18:00:00 12.7 7 Nordeste 13 Nordeste 0 981.5 -0.6 69
2018-01-24 17:00:00 14.2 10 Nordeste 17 Nordeste 0 981.5 -1.5 65
2018-01-24 16:00:00 14.2 8 Este 18 Este 0 981.9 -2.2 66
2018-01-24 15:00:00 13.9 8 Este 18 Este 0 982.1 -2.8 68
2018-01-24 14:00:00 13.5 9 Nordeste 17 Nordeste 0 983 -2.2 72
2018-01-24 13:00:00 9.9 6 Norte 15 Nordeste 0 984.1 -1 92
2018-01-24 12:00:00 8.1 9 Nordeste 14 Nordeste 0 984.9 -0.1 97
2018-01-24 11:00:00 7.2 8 Nordeste 14 Nordeste 0 985.2 0.7 97
2018-01-24 10:00:00 6.7 5 Nordeste 9 Nordeste 0 985.1 0.5 98
2018-01-24 09:00:00 5 3 Nordeste 13 Norte 0 985 0.4 93
2018-01-24 08:00:00 5.6 7 Norte 13 Norte 0 984.5 -0.2 94
2018-01-24 07:00:00 6.3 7 Norte 15 Norte 0 984.6 -0.3 93
2018-01-24 06:00:00 6.8 8 Noroeste 17 Noroeste 0 984.6 -0.6 94
2018-01-24 05:00:00 6.5 9 Noroeste 15 Noroeste 0 984.7 -0.4 96
2018-01-24 04:00:00 6.4 6 Norte 12 Norte 0 984.9 -0.4 97
2018-01-24 03:00:00 5.2 5 Norte 12 Sudeste 0 985.2 -0.2 96
2018-01-24 02:00:00 6.5 7 Norte 16 Este 0 985.1 -0.1 94
2018-01-24 01:00:00 8 11 Oeste 17 Oeste 0 985.3 0.4 92
2018-01-24 00:00:00 7.9 13 Oeste 16 Oeste 0 985.4 0.7 93
2018-01-23 23:00:00 8.4 11 Oeste 19 Oeste 0 985.2 0.6 90
2018-01-23 22:00:00 8.2 14 Oeste 21 Oeste 0 984.9 0.7 90
2018-01-23 21:00:00 8.8 12 Oeste 20 Sudoeste 0 984.7 1.1 88
2018-01-23 20:00:00 9.8 13 Oeste 17 Oeste 0 984.6 1.1 87
2018-01-23 19:00:00 11.8 7 Sudoeste 19 Oeste 0 984.2 0.8 78
2018-01-23 18:00:00 14.4 12 Oeste 26 Oeste 0 983.6 0.4 70
2018-01-23 17:00:00 15.9 18 Oeste 28 Oeste 0 983.5 -0.3 65
2018-01-23 16:00:00 15.6 19 Oeste 31 Sudoeste 0 983.4 -1 66
2018-01-23 15:00:00 15.4 20 Oeste 30 Oeste 0 983.2 -1.6 67
2018-01-23 14:00:00 15.5 17 Oeste 33 Oeste 0 983.8 -1.1 67
2018-01-23 13:00:00 14.4 25 Oeste 36 Oeste 0 984.4 0.1 70
2018-01-23 12:00:00 12.7 17 Oeste 30 Sudoeste 0 984.8 1 78
2018-01-23 11:00:00 9.7 11 Sudoeste 24 Sudoeste 0 984.9 1.5 90
2018-01-23 10:00:00 8.5 11 Sudoeste 26 Sudoeste 0 984.3 1.3 93
2018-01-23 09:00:00 7.9 12 Sudoeste 26 Oeste 0 983.8 1.2 95
2018-01-23 08:00:00 7.4 13 Sudoeste 28 Oeste 0 983.4 0.9 95
2018-01-23 07:00:00 7.3 17 Sudoeste 27 Oeste 0 983 0.4 94
2018-01-23 06:00:00 7.8 18 Oeste 30 Oeste 0 982.6 -0.2 92
2018-01-23 05:00:00 7.6 19 Oeste 33 Oeste 0 982.5 -0.2 92
2018-01-23 04:00:00 8.9 23 Sudoeste 38 Sudoeste 0 982.6 -0.2 89
2018-01-23 03:00:00 8.5 21 Oeste 36 Oeste 0 982.8 0.1 88
2018-01-23 02:00:00 9.5 25 Oeste 38 Oeste 0 982.7 0.7 86
2018-01-23 01:00:00 9.2 26 Oeste 36 Oeste 0 982.8 0.6 86
2018-01-23 00:00:00 9.6 24 Oeste 45 Oeste 0 982.7 0.9 83
2018-01-22 23:00:00 10.2 31 Oeste 45 Oeste 0 982 0.5 81
2018-01-22 22:00:00 10.9 29 Oeste 53 Oeste 0 982.2 1.1 78
2018-01-22 21:00:00 11.2 31 Oeste 53 Oeste 0 981.8 0.7 76
2018-01-22 20:00:00 12 40 Oeste 60 Oeste 0 981.5 1 72
2018-01-22 19:00:00 12.2 36 Oeste 52 Sudoeste 0 981.1 0.6 71
2018-01-22 18:00:00 12.9 28 Oeste 70 Oeste 0 981.1 0.7 67
2018-01-22 17:00:00 14.5 46 Oeste 69 Oeste 0 980.5 -0.3 60
2018-01-22 16:00:00 15.5 41 Oeste 63 Sudoeste 0 980.5 -1.4 57
2018-01-22 15:00:00 15.5 45 Oeste 65 Oeste 0 980.4 -2.3 58
2018-01-22 14:00:00 15.2 43 Oeste 64 Oeste 0 980.8 -2.2 60
2018-01-22 13:00:00 14.3 40 Oeste 64 Oeste 0 981.9 -0.8 64
2018-01-22 12:00:00 12.7 29 Sudoeste 56 Oeste 0 982.7 0.5 70
2018-01-22 11:00:00 11.6 31 Oeste 50 Oeste 0 983 0.7 76
2018-01-22 10:00:00 9.1 26 Oeste 46 Oeste 0 982.7 0.6 86
2018-01-22 09:00:00 7.3 22 Sudoeste 35 Sudoeste 0 982.2 0.4 89
2018-01-22 08:00:00 7.1 25 Oeste 40 Oeste 0 982.3 0.6 90
2018-01-22 07:00:00 7.5 27 Oeste 49 Oeste 0 982.1 0.2 89
2018-01-22 06:00:00 8 23 Sudoeste 51 Sudoeste 0 981.8 0.2 88
2018-01-22 05:00:00 8.5 36 Oeste 54 Oeste 0 981.7 0.1 88
2018-01-22 04:00:00 9.1 34 Oeste 63 Oeste 0 981.9 0 84
2018-01-22 03:00:00 9.7 38 Oeste 63 Oeste 0 981.6 -0.6 83
2018-01-22 02:00:00 9.9 39 Oeste 59 Sudoeste 0 981.6 -0.3 84
2018-01-22 01:00:00 10.5 35 Oeste 56 Sudoeste 0 981.9 0.1 84
2018-01-22 00:00:00 10.7 28 Oeste 58 Oeste 0 982.2 0.1 86